K4DNM Weather Reports


Display with metric or nautical units.
time (UTC)temp
F
wind
direction
speed
MPH
gust
MPH
rain 1hr
in
rain 24hr
in
rain mn
in
humidity
%
barometer
mb
20200803234726 72 86 0.0 0.0 0.00 0.71 0.71 99 1013.0
20200803234558 72 86 0.0 0.0 0.00 0.71 0.71 99 1013.0
20200803234232 72 86 0.0 0.0 0.00 0.71 0.71 99 1012.9
20200803234227 72 86 0.0 0.0 0.00 0.71 0.71 99 1013.0
20200803234109 72 86 0.0 0.0 0.00 0.71 0.71 99 1012.9
20200803233554 72 86 0.0 0.0 0.00 0.71 0.71 99 1012.9
20200803233221 72 86 0.0 0.0 0.00 0.71 0.71 99 1012.9
20200803233055 72 86 0.0 0.0 0.00 0.71 0.71 99 1012.9
20200803232721 72 86 0.0 0.0 0.00 0.71 0.71 99 1012.8
20200803232554 72 86 0.0 0.0 0.00 0.71 0.71 99 1012.9
20200803232222 72 86 0.0 0.0 0.00 0.71 0.71 99 1012.8
20200803232054 72 86 0.0 0.0 0.00 0.71 0.71 98 1012.8
20200803231952 72 86 0.0 0.0 0.00 0.71 0.71 98 1012.7
20200803231555 72 86 0.0 0.0 0.00 0.71 0.71 99 1012.7
20200803231222 72 86 0.0 0.0 0.00 0.71 0.71 98 1012.7
20200803231217 72 86 0.0 0.0 0.00 0.71 0.71 98 1012.7
20200803231104 72 86 0.0 0.0 0.00 0.71 0.71 98 1012.7
20200803230550 72 86 0.0 0.0 0.00 0.71 0.71 98 1012.7
20200803230216 72 86 0.0 0.0 0.01 0.71 0.71 98 1012.7
20200803230050 72 86 0.0 0.0 0.01 0.71 0.71 98 1012.7
20200803225718 72 86 0.0 0.0 0.01 0.71 0.71 98 1012.7
20200803225550 72 86 0.0 0.0 0.01 0.71 0.71 98 1012.7
20200803225217 72 86 0.0 0.0 0.02 0.71 0.71 98 1012.7
20200803225051 72 86 0.0 0.0 0.02 0.71 0.71 98 1012.6
20200803224947 72 86 0.0 0.0 0.02 0.71 0.71 98 1012.6
20200803224549 72 86 0.0 0.0 0.02 0.71 0.71 98 1012.7
20200803224212 72 86 0.0 0.0 0.03 0.71 0.71 98 1012.8
20200803224046 72 86 0.0 0.0 0.03 0.71 0.71 98 1012.7
20200803223945 72 86 0.0 0.0 0.03 0.71 0.71 98 1012.8
20200803223545 72 86 0.0 0.0 0.03 0.71 0.71 98 1012.8
20200803223215 72 86 0.0 0.0 0.04 0.71 0.71 98 1012.9
20200803223046 72 86 0.0 0.0 0.04 0.71 0.71 98 1012.9
20200803222944 72 86 0.0 0.0 0.04 0.71 0.71 98 1012.9
20200803222547 72 86 0.0 0.0 0.04 0.71 0.71 98 1013.0
20200803222212 72 86 0.0 0.0 0.05 0.71 0.71 98 1013.1
20200803222048 72 86 0.0 0.0 0.05 0.71 0.71 98 1013.2
20200803221712 72 86 0.0 0.0 0.05 0.71 0.71 98 1013.2
20200803221546 72 86 0.0 0.0 0.05 0.71 0.71 98 1013.3
20200803221209 72 86 0.0 0.0 0.07 0.71 0.71 98 1013.4
20200803221046 72 86 0.0 0.0 0.08 0.71 0.71 98 1013.4
20200803220939 72 86 0.0 0.0 0.09 0.71 0.71 98 1013.4
20200803220546 72 86 0.0 0.0 0.11 0.71 0.71 98 1013.5
20200803220208 72 86 0.0 0.0 0.16 0.70 0.70 98 1013.6
20200803220046 72 86 0.0 0.0 0.18 0.70 0.70 98 1013.7
20200803215710 72 86 0.0 0.0 0.32 0.70 0.70 97 1013.7
20200803215546 72 86 0.0 0.0 0.43 0.70 0.70 97 1013.7
20200803215207 72 86 0.0 0.0 0.60 0.69 0.69 97 1013.7
20200803215044 72 86 0.0 0.0 0.61 0.69 0.69 97 1013.8
20200803214706 72 86 0.0 0.0 0.61 0.69 0.69 97 1013.8
20200803214543 72 86 0.0 0.0 0.61 0.69 0.69 97 1013.7
20200803214201 72 91 0.0 0.0 0.60 0.68 0.68 97 1013.9
20200803214041 72 91 0.0 0.0 0.60 0.68 0.68 97 1013.9
20200803213929 72 97 0.0 0.0 0.60 0.68 0.68 97 1014.0
20200803213541 72 97 0.0 0.0 0.60 0.68 0.68 97 1014.0
20200803213158 72 97 0.0 0.0 0.59 0.67 0.67 97 1014.1
20200803213040 72 97 0.0 0.0 0.59 0.67 0.67 97 1014.1
20200803212926 72 97 0.0 0.0 0.59 0.67 0.67 97 1014.3
20200803212541 72 97 0.0 0.0 0.58 0.66 0.66 97 1014.4
20200803212155 72 97 0.0 8.0 0.58 0.66 0.66 96 1014.7
20200803212038 72 108 0.0 8.0 0.58 0.66 0.66 96 1014.7
20200803211648 72 98 1.0 8.0 0.58 0.66 0.66 96 1014.5
20200803211537 72 98 1.0 8.0 0.58 0.66 0.66 96 1014.6
20200803211149 73 104 1.0 7.0 0.56 0.64 0.65 95 1015.1
20200803211033 73 175 1.0 7.0 0.55 0.63 0.64 94 1015.2
20200803210649 73 108 2.0 11.0 0.54 0.62 0.62 94 1015.2
20200803210532 74 185 2.0 11.0 0.52 0.60 0.61 93 1015.3
20200803210151 74 169 5.0 20.0 0.44 0.52 0.54 93 1015.4
20200803210042 75 209 5.0 20.0 0.42 0.50 0.52 93 1015.5
20200803205647 76 169 4.0 20.0 0.30 0.38 0.41 92 1015.6
20200803205529 76 173 3.0 20.0 0.19 0.27 0.29 90 1015.6
20200803205147 79 120 0.0 1.0 0.00 0.08 0.08 96 1015.0
20200803205030 79 123 0.0 0.0 0.00 0.08 0.08 95 1014.7
20200803204645 79 103 0.0 0.0 0.00 0.08 0.08 95 1014.3
20200803204530 79 103 0.0 0.0 0.00 0.08 0.08 95 1014.3
20200803204144 79 103 0.0 0.0 0.00 0.08 0.08 95 1014.2
20200803204025 79 103 0.0 0.0 0.00 0.08 0.08 95 1014.2
20200803203645 79 103 0.0 0.0 0.00 0.08 0.08 95 1014.2
20200803203523 79 103 0.0 0.0 0.00 0.08 0.08 95 1014.2
20200803203144 79 103 0.0 0.0 0.00 0.08 0.08 95 1014.1
20200803203021 79 103 0.0 0.0 0.00 0.08 0.08 95 1014.1
20200803202641 79 103 0.0 0.0 0.00 0.08 0.08 95 1014.0
20200803202518 79 103 0.0 0.0 0.00 0.08 0.08 95 1014.1
20200803202142 79 103 0.0 0.0 0.00 0.08 0.08 94 1014.0
20200803202018 79 103 0.0 0.0 0.00 0.08 0.08 94 1014.1
20200803201639 79 103 0.0 0.0 0.01 0.08 0.08 95 1014.0
20200803201515 79 103 0.0 0.0 0.01 0.08 0.08 95 1013.9
20200803201138 79 103 0.0 0.0 0.02 0.08 0.08 95 1014.0
20200803201013 79 103 0.0 0.0 0.02 0.08 0.08 94 1014.1
20200803200638 79 103 0.0 0.0 0.02 0.08 0.08 94 1014.2
20200803200512 79 103 0.0 0.0 0.02 0.08 0.08 93 1014.2
20200803200138 79 103 0.0 0.0 0.02 0.08 0.08 95 1014.2
20200803200010 79 103 0.0 0.0 0.02 0.08 0.08 94 1014.2
20200803195639 79 103 0.0 0.0 0.02 0.08 0.08 95 1014.3
20200803195511 79 103 0.0 0.0 0.02 0.08 0.08 95 1014.3
20200803195137 79 103 0.0 0.0 0.02 0.08 0.08 95 1014.4
20200803195000 79 103 0.0 0.0 0.02 0.08 0.08 94 1014.4
20200803194635 79 103 0.0 0.0 0.02 0.08 0.08 94 1014.5
20200803194457 79 108 0.0 0.0 0.02 0.08 0.08 94 1014.5
20200803194136 79 119 0.0 0.0 0.02 0.08 0.08 93 1014.4
20200803194001 79 119 0.0 0.0 0.02 0.08 0.08 93 1014.5
20200803193634 79 119 0.0 0.0 0.02 0.08 0.08 93 1014.5
20200803193457 79 119 0.0 0.0 0.02 0.08 0.08 93 1014.5
20200803193134 79 119 0.0 0.0 0.02 0.08 0.08 93 1014.7
20200803193000 79 119 0.0 1.0 0.02 0.08 0.08 92 1014.6
20200803192633 80 119 0.0 2.0 0.02 0.08 0.08 91 1014.8
20200803192456 80 119 0.0 2.0 0.02 0.08 0.08 91 1014.9
20200803192130 80 161 0.0 2.0 0.02 0.08 0.08 91 1014.9
20200803191950 80 88 0.0 2.0 0.02 0.08 0.08 92 1015.0
20200803191632 80 195 0.0 2.0 0.01 0.07 0.07 91 1015.2
20200803191450 81 195 0.0 2.0 0.01 0.07 0.07 91 1015.1
20200803191131 81 196 0.0 2.0 0.00 0.06 0.06 90 1015.1
20200803190947 81 196 0.0 2.0 0.00 0.06 0.06 89 1015.3
20200803190626 81 100 0.0 0.0 0.00 0.06 0.06 89 1015.2
20200803190445 81 100 0.0 0.0 0.00 0.06 0.06 89 1015.2
20200803190124 82 100 0.0 2.0 0.00 0.06 0.06 88 1015.1
20200803185943 82 100 0.0 4.0 0.00 0.06 0.06 87 1015.2
20200803185624 82 100 1.0 4.0 0.00 0.06 0.06 86 1015.0
20200803185441 82 144 1.0 4.0 0.00 0.06 0.06 87 1015.0
20200803185124 82 144 1.0 4.0 0.00 0.06 0.06 85 1015.0
20200803184942 82 180 1.0 4.0 0.00 0.06 0.06 86 1014.8
20200803184627 82 105 1.0 3.0 0.00 0.06 0.06 86 1014.9
20200803184444 82 100 2.0 3.0 0.00 0.06 0.06 84 1014.8
20200803184351 82 101 2.0 7.0 0.00 0.06 0.06 83 1014.8
20200803183939 82 105 2.0 7.0 0.00 0.06 0.06 84 1014.8
20200803183618 82 110 1.0 7.0 0.00 0.06 0.06 85 1014.9
20200803183439 82 86 1.0 7.0 0.00 0.06 0.06 85 1014.9
20200803183117 82 109 1.0 4.0 0.00 0.06 0.06 85 1014.9
20200803182939 82 111 1.0 4.0 0.00 0.06 0.06 85 1014.9
20200803182612 82 112 1.0 6.0 0.00 0.06 0.06 85 1015.0
20200803182433 82 113 1.0 6.0 0.00 0.06 0.06 86 1015.1
20200803182116 82 105 1.0 6.0 0.00 0.06 0.06 86 1015.2
20200803181931 81 109 2.0 6.0 0.00 0.06 0.06 87 1015.2
20200803181612 81 70 1.0 4.0 0.00 0.06 0.06 88 1015.2
20200803181432 81 114 1.0 4.0 0.00 0.06 0.06 89 1015.2
20200803181110 81 105 1.0 4.0 0.00 0.06 0.06 86 1015.2
20200803180933 81 103 0.0 4.0 0.00 0.06 0.06 87 1015.1
20200803180612 81 109 0.0 0.0 0.00 0.06 0.06 86 1015.2
20200803180432 80 111 0.0 0.0 0.00 0.06 0.06 90 1015.2
20200803180108 80 111 0.0 0.0 0.00 0.06 0.06 88 1015.3
20200803175932 80 89 0.0 0.0 0.00 0.06 0.06 88 1015.4
20200803175606 80 98 0.0 0.0 0.00 0.06 0.06 89 1015.4
20200803175425 80 119 0.0 0.0 0.00 0.06 0.06 89 1015.5
20200803175337 80 104 0.0 0.0 0.00 0.06 0.06 90 1015.5
20200803174925 80 88 0.0 0.0 0.00 0.06 0.06 90 1015.5
20200803174600 80 88 0.0 0.0 0.00 0.06 0.06 89 1015.5
20200803174422 80 88 0.0 0.0 0.00 0.06 0.06 89 1015.6
20200803174059 80 88 0.0 0.0 0.00 0.06 0.06 89 1015.6
20200803173920 80 88 0.0 0.0 0.00 0.06 0.06 89 1015.6
20200803173601 80 88 0.0 0.0 0.00 0.06 0.06 89 1015.6
20200803173425 80 88 0.0 0.0 0.00 0.06 0.06 89 1015.6
20200803173054 80 88 0.0 0.0 0.00 0.06 0.06 91 1015.6
20200803172917 80 88 0.0 0.0 0.00 0.06 0.06 90 1015.6
20200803172555 80 88 0.0 0.0 0.00 0.06 0.06 90 1015.7
20200803172415 80 88 0.0 0.0 0.00 0.06 0.06 90 1015.7
20200803172326 80 88 0.0 0.0 0.00 0.06 0.06 90 1015.8
20200803171915 80 88 0.0 0.0 0.00 0.06 0.06 90 1015.8
20200803171551 80 88 0.0 0.0 0.00 0.06 0.06 91 1015.8
20200803171415 80 88 0.0 0.0 0.00 0.06 0.06 91 1015.8
20200803171320 80 88 0.0 0.0 0.00 0.06 0.06 92 1015.9
20200803170914 80 88 0.0 0.0 0.00 0.06 0.06 92 1015.9
20200803170548 79 88 0.0 0.0 0.00 0.06 0.06 91 1016.1
20200803170414 79 88 0.0 0.0 0.00 0.06 0.06 89 1016.0
20200803170319 79 88 0.0 0.0 0.00 0.06 0.06 89 1016.1
20200803165911 80 88 0.0 0.0 0.00 0.06 0.06 89 1016.1
20200803165822 80 88 0.0 0.0 0.00 0.06 0.06 90 1016.1
20200803165409 80 88 0.0 0.0 0.00 0.06 0.06 89 1016.1
20200803165045 80 88 0.0 0.0 0.00 0.06 0.06 91 1015.9
20200803164908 80 88 0.0 0.0 0.00 0.06 0.06 91 1015.9
20200803164545 80 88 0.0 0.0 0.00 0.06 0.06 92 1016.0
20200803164407 80 88 0.0 0.0 0.00 0.06 0.06 92 1016.0
20200803164044 79 88 0.0 0.0 0.00 0.06 0.06 93 1016.0
20200803163907 79 88 0.0 0.0 0.00 0.06 0.06 93 1016.0
20200803163816 79 88 0.0 0.0 0.00 0.06 0.06 91 1016.0
20200803163408 79 88 0.0 0.0 0.00 0.06 0.06 92 1016.0
20200803163314 79 106 0.0 3.0 0.00 0.06 0.06 91 1016.1
20200803162907 79 106 1.0 3.0 0.00 0.06 0.06 90 1016.1
20200803162543 79 110 1.0 3.0 0.00 0.06 0.06 91 1016.1
20200803162404 79 111 2.0 8.0 0.00 0.06 0.06 90 1016.1
20200803162037 79 91 2.0 8.0 0.00 0.06 0.06 91 1016.1
20200803161901 79 89 2.0 8.0 0.00 0.06 0.06 91 1016.1
20200803161536 79 115 2.0 8.0 0.00 0.06 0.06 90 1016.3
20200803161402 79 118 2.0 6.0 0.00 0.06 0.06 92 1016.3
20200803161036 79 174 2.0 8.0 0.00 0.06 0.06 92 1016.2
20200803160901 78 165 2.0 8.0 0.00 0.06 0.06 93 1016.2
20200803160808 78 93 1.0 8.0 0.00 0.06 0.06 92 1016.3
20200803160402 78 120 1.0 8.0 0.00 0.06 0.06 91 1016.3
20200803160306 78 125 0.0 2.0 0.01 0.06 0.06 93 1016.2
20200803155900 78 114 0.0 2.0 0.01 0.06 0.06 93 1016.2
20200803155537 78 106 0.0 0.0 0.01 0.06 0.06 93 1016.1
20200803155532 78 122 0.0 3.0 0.01 0.06 0.06 93 1015.8
20200803155416 78 163 0.0 0.0 0.01 0.06 0.06 93 1016.1
20200803154858 78 110 0.0 3.0 0.01 0.06 0.06 92 1015.7
20200803154529 78 111 0.0 3.0 0.01 0.06 0.06 94 1015.6
20200803154358 78 108 0.0 3.0 0.01 0.06 0.06 93 1015.6
20200803154027 78 80 0.0 0.0 0.01 0.06 0.06 96 1015.3
20200803153855 78 80 0.0 0.0 0.01 0.06 0.06 96 1015.3
20200803153524 77 80 0.0 0.0 0.02 0.06 0.06 97 1015.6
20200803153356 77 93 0.0 0.0 0.04 0.06 0.06 97 1015.6
20200803153024 76 93 0.0 0.0 0.05 0.06 0.06 96 1015.7
20200803152852 76 93 0.0 0.0 0.05 0.06 0.06 95 1015.8
20200803152523 76 92 0.0 0.0 0.05 0.06 0.06 96 1016.0
20200803152352 76 96 0.0 0.0 0.05 0.06 0.06 96 1016.0
20200803152253 76 98 0.0 0.0 0.06 0.06 0.06 97 1016.1
20200803151851 76 88 0.0 0.0 0.06 0.06 0.06 97 1016.2
20200803151754 76 88 0.0 0.0 0.06 0.06 0.06 97 1016.2
20200803151351 76 88 0.0 0.0 0.06 0.06 0.06 97 1016.3
20200803151021 75 88 0.0 0.0 0.06 0.06 0.06 98 1016.4
20200803150851 75 88 0.0 0.0 0.06 0.06 0.06 98 1016.5
20200803150523 75 169 0.0 0.0 0.06 0.06 0.06 98 1016.6
20200803150351 74 169 0.0 0.0 0.06 0.06 0.06 98 1016.7
20200803150021 74 240 0.0 0.0 0.05 0.05 0.05 97 1016.8
20200803145857 74 280 0.0 0.0 0.05 0.05 0.05 97 1016.9
20200803145521 73 280 0.0 0.0 0.05 0.05 0.05 97 1016.9
20200803145349 73 280 0.0 0.0 0.05 0.05 0.05 96 1016.9
20200803145018 73 280 0.0 0.0 0.05 0.05 0.05 95 1016.9
20200803144849 73 280 0.0 0.0 0.05 0.05 0.05 95 1017.0
20200803144516 73 280 0.0 0.0 0.05 0.05 0.05 94 1017.1
20200803144349 73 280 0.0 0.0 0.05 0.05 0.05 94 1017.1
20200803144018 74 280 0.0 6.0 0.05 0.05 0.05 93 1017.1
20200803143849 74 280 1.0 6.0 0.05 0.05 0.05 92 1017.1
20200803143516 74 280 2.0 11.0 0.04 0.04 0.04 92 1017.1
20200803143349 74 178 3.0 15.0 0.02 0.02 0.03 91 1017.1
20200803143016 75 177 6.0 18.0 0.01 0.01 0.01 89 1017.0
20200803142849 76 231 7.0 18.0 0.01 0.01 0.01 88 1016.9
20200803142518 77 190 9.0 21.0 0.01 0.01 0.01 86 1016.9
20200803142350 78 188 7.0 21.0 0.01 0.01 0.01 85 1016.6
20200803142016 81 175 5.0 21.0 0.00 0.00 0.00 82 1016.8
20200803141843 82 134 3.0 21.0 0.00 0.00 0.00 81 1016.8
20200803141511 83 171 0.0 6.0 0.00 0.00 0.00 87 1016.5
20200803141343 83 146 0.0 6.0 0.00 0.00 0.00 87 1016.2
20200803141011 83 156 0.0 6.0 0.00 0.00 0.00 88 1016.1
20200803140843 83 103 0.0 6.0 0.00 0.00 0.00 87 1016.2
20200803140509 83 113 0.0 0.0 0.00 0.00 0.00 89 1016.2
20200803140343 83 157 0.0 0.0 0.00 0.00 0.00 89 1016.1
20200803140009 83 96 0.0 0.0 0.00 0.00 0.00 90 1016.0
20200803135845 83 96 0.0 0.0 0.00 0.00 0.00 89 1016.0
20200803135739 83 97 0.0 0.0 0.00 0.00 0.00 90 1016.0
20200803135344 83 92 0.0 0.0 0.00 0.00 0.00 90 1016.1
20200803135010 83 157 0.0 0.0 0.00 0.00 0.00 90 1016.1
20200803134843 83 98 0.0 0.0 0.00 0.00 0.00 90 1016.2
20200803134510 83 110 0.0 1.0 0.00 0.00 0.00 90 1016.2
20200803134340 83 113 0.0 1.0 0.00 0.00 0.00 91 1016.2
20200803134006 82 105 0.0 1.0 0.00 0.00 0.00 92 1016.2
20200803133839 82 142 0.0 1.0 0.00 0.00 0.00 91 1016.2
20200803133507 82 89 0.0 0.0 0.00 0.00 0.00 92 1016.4
20200803133339 82 171 0.0 0.0 0.00 0.00 0.00 92 1016.4
20200803133006 81 161 0.0 0.0 0.00 0.00 0.00 95 1016.5
20200803132839 81 101 0.0 0.0 0.00 0.00 0.00 94 1016.5
20200803132506 80 101 0.0 0.0 0.00 0.00 0.00 94 1016.6
20200803132341 80 85 0.0 0.0 0.00 0.00 0.00 95 1016.6
20200803132238 80 103 0.0 0.0 0.00 0.00 0.00 96 1016.7
20200803131841 80 105 0.0 0.0 0.00 0.00 0.00 96 1016.7
20200803131502 79 96 0.0 0.0 0.00 0.00 0.00 97 1016.7
20200803131335 79 89 0.0 0.0 0.00 0.00 0.00 97 1016.7
20200803131003 79 106 0.0 0.0 0.00 0.00 0.00 98 1016.8
20200803130834 79 93 0.0 0.0 0.00 0.00 0.00 98 1016.8
20200803130501 78 95 0.0 0.0 0.00 0.00 0.00 99 1016.8
20200803130334 78 96 0.0 0.0 0.00 0.00 0.00 99 1016.8
20200803130002 78 96 0.0 0.0 0.00 0.00 0.00 99 1016.9
20200803125836 78 96 0.0 0.0 0.00 0.00 0.00 99 1016.9
20200803125504 78 96 0.0 0.0 0.00 0.00 0.00 99 1016.9
20200803125336 77 96 0.0 0.0 0.00 0.00 0.00 99 1016.9
20200803125002 77 96 0.0 0.0 0.00 0.00 0.00 99 1017.0
20200803124836 77 96 0.0 0.0 0.00 0.00 0.00 99 1017.0
20200803124457 77 96 0.0 0.0 0.00 0.00 0.00 99 1016.9
20200803124332 77 96 0.0 0.0 0.00 0.00 0.00 99 1017.0
20200803123959 77 96 0.0 0.0 0.00 0.00 0.00 99 1016.9
20200803123832 77 96 0.0 0.0 0.00 0.00 0.00 99 1016.9
20200803123500 77 96 0.0 0.0 0.00 0.00 0.00 99 1016.9
20200803123332 77 96 0.0 0.0 0.00 0.00 0.00 99 1016.9
20200803122958 77 96 0.0 0.0 0.00 0.00 0.00 99 1016.9
20200803122831 77 96 0.0 0.0 0.00 0.00 0.00 100 1016.9
20200803122730 76 96 0.0 0.0 0.00 0.00 0.00 99 1016.8
20200803122334 76 96 0.0 0.0 0.00 0.00 0.00 99 1016.8
20200803121959 76 90 0.0 0.0 0.00 0.00 0.00 99 1016.8
20200803121833 76 90 0.0 0.0 0.00 0.00 0.00 99 1016.9
20200803121454 76 142 0.0 0.0 0.00 0.00 0.00 99 1016.9
20200803121329 76 142 0.0 0.0 0.00 0.00 0.00 99 1016.8
20200803120955 76 153 0.0 0.0 0.00 0.00 0.00 99 1016.9
20200803120827 76 153 0.0 0.0 0.00 0.00 0.00 99 1016.9
20200803120454 76 153 0.0 0.0 0.00 0.00 0.00 100 1016.9
20200803120327 76 153 0.0 0.0 0.00 0.00 0.00 100 1016.8
20200803115953 76 165 0.0 0.0 0.00 0.00 0.00 99 1016.8
20200803115827 76 165 0.0 0.0 0.00 0.00 0.00 99 1016.8
20200803115456 76 165 0.0 0.0 0.00 0.00 0.00 99 1016.8
20200803115328 75 165 0.0 0.0 0.00 0.00 0.00 99 1016.8
20200803115226 75 165 0.0 0.0 0.00 0.00 0.00 99 1016.9
20200803114828 75 165 0.0 0.0 0.00 0.00 0.00 99 1016.8
20200803114454 75 165 0.0 0.0 0.00 0.00 0.00 99 1016.8
20200803114324 75 165 0.0 0.0 0.00 0.00 0.00 99 1016.7
20200803113952 75 165 0.0 0.0 0.00 0.00 0.00 99 1016.7
20200803113824 75 165 0.0 0.0 0.00 0.00 0.00 99 1016.7
20200803113453 75 165 0.0 0.0 0.00 0.00 0.00 99 1016.6
20200803113322 75 165 0.0 0.0 0.00 0.00 0.00 99 1016.6
20200803112951 74 165 0.0 0.0 0.00 0.00 0.00 99 1016.4
20200803112820 74 165 0.0 0.0 0.00 0.00 0.00 99 1016.4
20200803112450 74 165 0.0 0.0 0.00 0.00 0.00 99 1016.4
20200803112320 74 165 0.0 0.0 0.00 0.00 0.00 99 1016.3
20200803111949 74 165 0.0 0.0 0.00 0.00 0.00 99 1016.3
20200803111819 74 165 0.0 0.0 0.00 0.00 0.00 99 1016.3
20200803111718 74 165 0.0 0.0 0.00 0.00 0.00 99 1016.3
20200803111316 74 165 0.0 0.0 0.00 0.00 0.00 99 1016.2
20200803110945 74 165 0.0 0.0 0.00 0.00 0.00 99 1016.2
20200803110816 74 165 0.0 0.0 0.00 0.00 0.00 99 1016.1
20200803110445 74 165 0.0 0.0 0.00 0.00 0.00 99 1016.1
20200803110311 73 165 0.0 0.0 0.00 0.00 0.00 99 1016.1
20200803105945 73 165 0.0 0.0 0.00 0.00 0.00 99 1016.1
20200803105809 73 165 0.0 0.0 0.00 0.00 0.00 99 1016.1
20200803105444 73 165 0.0 0.0 0.00 0.00 0.00 99 1016.2
20200803105310 73 165 0.0 0.0 0.00 0.00 0.00 99 1016.2
20200803104942 73 165 0.0 0.0 0.00 0.00 0.00 99 1016.2
20200803104809 73 165 0.0 0.0 0.00 0.00 0.00 99 1016.2
20200803104440 73 165 0.0 0.0 0.00 0.00 0.00 99 1016.1
20200803104309 73 165 0.0 0.0 0.00 0.00 0.00 99 1016.1
20200803103937 73 165 0.0 0.0 0.00 0.00 0.00 98 1016.1
20200803103809 73 165 0.0 0.0 0.00 0.00 0.00 99 1016.1
20200803103438 73 165 0.0 0.0 0.00 0.00 0.00 99 1016.1
20200803103303 73 165 0.0 0.0 0.00 0.00 0.00 99 1016.1
20200803102935 73 165 0.0 0.0 0.00 0.00 0.00 98 1016.0
20200803102803 73 165 0.0 0.0 0.00 0.00 0.00 98 1016.0
20200803102704 73 165 0.0 0.0 0.00 0.00 0.00 98 1015.9
20200803102548 72 165 0.0 0.0 0.00 0.00 0.00 98 1016.0
20200803102320 73 165 0.0 0.0 0.00 0.00 0.00 98 1015.9
20200803101756 73 165 0.0 0.0 0.00 0.00 0.00 98 1016.0
20200803101434 72 165 0.0 0.0 0.00 0.00 0.00 98 1016.0
20200803101258 72 165 0.0 0.0 0.00 0.00 0.00 98 1016.0
20200803101203 72 165 0.0 0.0 0.00 0.00 0.00 98 1016.0
20200803100751 72 165 0.0 0.0 0.00 0.00 0.00 98 1015.9
20200803100437 72 165 0.0 0.0 0.00 0.00 0.00 98 1015.8
20200803100431 72 165 0.0 0.0 0.00 0.00 0.00 98 1015.9
20200803100314 72 165 0.0 0.0 0.00 0.00 0.00 98 1015.9
20200803095750 72 165 0.0 0.0 0.00 0.00 0.00 98 1015.8
20200803095430 72 165 0.0 0.0 0.00 0.00 0.00 98 1015.8
20200803095251 72 165 0.0 0.0 0.00 0.00 0.00 98 1015.7
20200803094928 72 165 0.0 0.0 0.00 0.00 0.00 98 1015.7
20200803094749 72 165 0.0 0.0 0.00 0.00 0.00 98 1015.7
20200803094427 72 165 0.0 0.0 0.00 0.00 0.00 98 1015.7
20200803094251 72 165 0.0 0.0 0.00 0.00 0.00 98 1015.7
20200803093923 72 165 0.0 0.0 0.00 0.00 0.00 98 1015.6
20200803093745 72 165 0.0 0.0 0.00 0.00 0.00 98 1015.6
20200803093657 72 165 0.0 0.0 0.00 0.00 0.00 98 1015.5
20200803093245 72 165 0.0 0.0 0.00 0.00 0.00 98 1015.5
20200803092923 72 165 0.0 0.0 0.00 0.00 0.00 98 1015.6
20200803092745 72 165 0.0 0.0 0.00 0.00 0.00 98 1015.5
20200803092419 73 165 0.0 0.0 0.00 0.00 0.00 98 1015.5
20200803092247 73 165 0.0 0.0 0.00 0.00 0.00 98 1015.6
20200803091920 73 165 0.0 0.0 0.00 0.00 0.00 98 1015.5
20200803091742 73 165 0.0 0.0 0.00 0.00 0.00 98 1015.5
20200803091419 73 165 0.0 0.0 0.00 0.00 0.00 98 1015.5
20200803091242 73 165 0.0 0.0 0.00 0.00 0.00 98 1015.4
20200803090918 73 165 0.0 0.0 0.00 0.00 0.00 98 1015.4
20200803090737 73 165 0.0 0.0 0.00 0.00 0.00 98 1015.4
20200803090419 73 165 0.0 0.0 0.00 0.00 0.00 97 1015.3
20200803090236 73 165 0.0 0.0 0.00 0.00 0.00 97 1015.3
20200803085916 73 165 0.0 0.0 0.00 0.00 0.00 97 1015.4
20200803085733 73 165 0.0 0.0 0.00 0.00 0.00 97 1015.4
20200803085413 73 165 0.0 0.0 0.00 0.00 0.00 97 1015.3
20200803085230 73 165 0.0 0.0 0.00 0.00 0.00 97 1015.3
20200803084915 73 165 0.0 0.0 0.00 0.00 0.00 97 1015.3
20200803084732 73 165 0.0 0.0 0.00 0.00 0.00 97 1015.3
20200803084413 73 165 0.0 0.0 0.00 0.00 0.00 97 1015.2
20200803084229 73 165 0.0 0.0 0.00 0.00 0.00 97 1015.2
20200803084142 73 165 0.0 0.0 0.00 0.00 0.00 97 1015.1
20200803083729 73 165 0.0 0.0 0.00 0.00 0.00 97 1015.1
20200803083413 73 165 0.0 0.0 0.00 0.00 0.00 97 1015.1
20200803083231 73 165 0.0 0.0 0.00 0.00 0.00 97 1015.2
20200803082911 73 165 0.0 0.0 0.00 0.00 0.00 97 1015.3
20200803082728 73 165 0.0 0.0 0.00 0.00 0.00 97 1015.2
20200803082409 73 165 0.0 0.0 0.00 0.00 0.00 97 1015.2
20200803082225 73 165 0.0 0.0 0.00 0.00 0.00 97 1015.3
20200803081909 73 165 0.0 0.0 0.00 0.00 0.00 97 1015.3
20200803081725 73 165 0.0 0.0 0.00 0.00 0.00 97 1015.2
20200803081408 73 165 0.0 0.0 0.00 0.00 0.00 97 1015.3
20200803081220 73 165 0.0 0.0 0.00 0.00 0.00 97 1015.3
20200803080906 73 165 0.0 0.0 0.00 0.00 0.00 97 1015.3
20200803080716 73 165 0.0 0.0 0.00 0.00 0.00 97 1015.3
20200803080406 73 165 0.0 0.0 0.00 0.00 0.00 97 1015.2
20200803080214 73 165 0.0 0.0 0.00 0.00 0.00 97 1015.3
20200803075901 73 165 0.0 0.0 0.00 0.00 0.00 97 1015.3
20200803075712 73 165 0.0 0.0 0.00 0.00 0.00 97 1015.3
20200803075359 74 165 0.0 0.0 0.00 0.00 0.00 97 1015.3
20200803075213 74 165 0.0 0.0 0.00 0.00 0.00 97 1015.2
20200803074855 74 165 0.0 0.0 0.00 0.00 0.00 97 1015.2
20200803074706 74 165 0.0 0.0 0.00 0.00 0.00 97 1015.1
20200803074353 74 165 0.0 0.0 0.00 0.00 0.00 97 1015.2
20200803074204 74 165 0.0 0.0 0.00 0.00 0.00 97 1015.1
20200803073856 74 165 0.0 0.0 0.00 0.00 0.00 97 1015.2
20200803073704 74 165 0.0 0.0 0.00 0.00 0.00 97 1015.2
20200803073348 74 165 0.0 0.0 0.00 0.00 0.00 97 1015.2
20200803073202 74 165 0.0 0.0 0.00 0.00 0.00 97 1015.2
20200803072846 74 165 0.0 0.0 0.00 0.00 0.00 97 1015.2
20200803072707 74 165 0.0 0.0 0.00 0.00 0.00 97 1015.2
20200803072619 74 165 0.0 0.0 0.00 0.00 0.00 97 1015.3
20200803072155 74 165 0.0 0.0 0.00 0.00 0.00 97 1015.3
20200803072119 74 165 0.0 0.0 0.00 0.00 0.00 96 1015.3
20200803071653 74 165 0.0 0.0 0.00 0.00 0.00 96 1015.3
20200803071348 74 165 0.0 0.0 0.00 0.00 0.00 96 1015.3
20200803071150 74 165 0.0 0.0 0.00 0.00 0.00 97 1015.3
20200803070849 74 165 0.0 0.0 0.00 0.00 0.00 96 1015.3
20200803070648 74 165 0.0 0.0 0.00 0.00 0.00 96 1015.4
20200803070345 74 165 0.0 0.0 0.00 0.00 0.00 96 1015.4
20200803070149 74 165 0.0 0.0 0.00 0.00 0.00 96 1015.3
20200803065845 74 165 0.0 0.0 0.00 0.00 0.00 96 1015.3
20200803065645 74 165 0.0 0.0 0.00 0.00 0.00 96 1015.2
20200803065347 74 165 0.0 0.0 0.00 0.00 0.00 96 1015.3
20200803065146 74 165 0.0 0.0 0.00 0.00 0.00 96 1015.3
20200803064843 74 165 0.0 0.0 0.00 0.00 0.00 96 1015.2
20200803064645 74 165 0.0 0.0 0.00 0.00 0.00 96 1015.2
20200803064347 74 165 0.0 0.0 0.00 0.00 0.00 96 1015.1
20200803064341 74 165 0.0 0.0 0.00 0.00 0.00 96 1015.2
20200803064221 74 165 0.0 0.0 0.00 0.00 0.00 96 1015.2
20200803063643 74 165 0.0 0.0 0.00 0.00 0.00 96 1015.1
20200803063335 75 165 0.0 0.0 0.00 0.00 0.00 96 1015.2
20200803063145 75 165 0.0 0.0 0.00 0.00 0.00 96 1015.2
20200803062834 75 165 0.0 0.0 0.00 0.00 0.00 96 1015.2
20200803062641 75 165 0.0 0.0 0.00 0.00 0.00 96 1015.2
20200803062333 75 165 0.0 0.0 0.00 0.00 0.00 96 1015.2
20200803062141 75 165 0.0 0.0 0.00 0.00 0.00 96 1015.1
20200803061829 75 165 0.0 0.0 0.00 0.00 0.00 95 1015.1
20200803061639 75 165 0.0 0.0 0.00 0.00 0.00 95 1015.1
20200803061330 75 165 0.0 0.0 0.00 0.00 0.00 95 1015.1
20200803061145 75 165 0.0 0.0 0.00 0.00 0.00 95 1015.0
20200803060822 75 165 0.0 0.0 0.00 0.00 0.00 95 1015.0
20200803060636 75 165 0.0 0.0 0.00 0.00 0.00 95 1015.0
20200803060321 75 161 0.0 0.0 0.00 0.00 0.00 95 1015.0
20200803060137 75 161 0.0 0.0 0.00 0.00 0.00 95 1015.1
20200803055820 75 161 0.0 0.0 0.00 0.00 0.00 95 1015.1
20200803055630 75 161 0.0 0.0 0.00 0.00 0.00 95 1015.1
20200803055318 75 161 0.0 0.0 0.00 0.00 0.00 95 1015.0
20200803055130 75 223 0.0 0.0 0.00 0.00 0.00 95 1015.0
20200803054818 76 223 0.0 0.0 0.00 0.00 0.00 95 1015.1
20200803054626 76 223 0.0 0.0 0.00 0.00 0.00 95 1015.0
20200803054315 76 223 0.0 0.0 0.00 0.00 0.00 95 1015.1
20200803054125 76 223 0.0 0.0 0.00 0.00 0.00 94 1015.1
20200803053814 76 223 0.0 0.0 0.00 0.00 0.00 94 1015.1
20200803053626 76 223 0.0 0.0 0.00 0.00 0.00 94 1015.1
20200803053314 76 223 0.0 0.0 0.00 0.00 0.00 95 1015.0
20200803053118 76 223 0.0 0.0 0.00 0.00 0.00 95 1015.0
20200803053043 76 225 0.0 0.0 0.00 0.00 0.00 94 1014.9
20200803052617 76 225 0.0 0.0 0.00 0.00 0.00 94 1014.9
20200803052542 76 225 0.0 0.0 0.00 0.00 0.00 94 1014.9
20200803052114 76 162 0.0 0.0 0.00 0.00 0.00 94 1014.9
20200803051813 76 234 0.0 0.0 0.00 0.00 0.00 94 1014.8
20200803051613 76 234 0.0 0.0 0.00 0.00 0.00 94 1014.8
20200803051309 76 227 0.0 0.0 0.00 0.00 0.00 94 1014.8
20200803051114 76 228 0.0 0.0 0.00 0.00 0.00 94 1014.8
20200803051040 76 169 0.0 0.0 0.00 0.00 0.00 93 1014.9
20200803050606 76 169 0.0 0.0 0.00 0.00 0.00 93 1015.0
20200803050307 76 168 0.0 0.0 0.00 0.00 0.00 93 1014.9
20200803050106 76 168 0.0 0.0 0.00 0.00 0.00 93 1014.9
20200803045807 76 168 0.0 0.0 0.00 0.00 0.00 92 1014.9
20200803045604 76 168 0.0 0.0 0.00 0.00 0.00 92 1015.0
20200803045305 76 167 0.0 0.0 0.00 0.00 0.00 92 1015.0
20200803045059 76 167 0.0 0.0 0.00 0.00 0.00 92 1015.0
20200803045038 76 167 0.0 0.0 0.00 0.00 0.00 92 1015.1
20200803044601 76 167 0.0 0.0 0.00 0.00 0.00 92 1015.1
20200803044303 76 167 0.0 0.0 0.00 0.00 0.00 92 1015.1
20200803044056 76 182 0.0 0.0 0.00 0.00 0.00 92 1015.1
20200803043801 76 182 0.0 0.0 0.00 0.00 0.00 92 1015.0
20200803043558 77 182 0.0 0.0 0.00 0.00 0.00 91 1015.1
20200803043259 77 182 0.0 0.0 0.00 0.00 0.00 91 1015.1
20200803043056 77 182 0.0 0.0 0.00 0.00 0.00 91 1015.1
20200803042758 77 182 0.0 0.0 0.00 0.00 0.00 91 1015.1
20200803042556 77 182 0.0 0.0 0.00 0.00 0.00 91 1015.1
20200803042258 77 211 0.0 0.0 0.00 0.00 0.00 91 1015.1
20200803042052 77 211 0.0 0.0 0.00 0.00 0.00 91 1015.1
20200803041759 77 211 0.0 0.0 0.00 0.00 0.00 90 1015.2
20200803041552 77 175 0.0 0.0 0.00 0.00 0.00 90 1015.2
20200803041252 77 175 0.0 0.0 0.00 0.00 0.00 90 1015.2
20200803041050 77 175 0.0 0.0 0.00 0.00 0.00 90 1015.2
20200803040749 77 206 0.0 0.0 0.00 0.00 0.00 90 1015.2
20200803040551 77 203 0.0 0.0 0.00 0.00 0.00 90 1015.2
20200803040250 77 188 0.0 0.0 0.00 0.00 0.00 90 1015.2
20200803040050 77 187 0.0 0.0 0.00 0.00 0.00 90 1015.1
20200803035751 77 203 0.0 0.0 0.00 0.00 0.00 90 1015.2
20200803035551 77 211 0.0 0.0 0.00 0.00 0.00 89 1015.2
20200803035249 77 207 0.0 0.0 0.00 0.00 0.00 89 1015.1
20200803035050 77 209 0.0 0.0 0.00 0.00 0.00 89 1015.1
20200803035020 78 209 0.0 0.0 0.00 0.00 0.00 89 1015.2
20200803034551 78 205 0.0 0.0 0.00 0.00 0.00 89 1015.1
20200803034515 78 205 0.0 0.0 0.00 0.00 0.00 88 1015.1
20200803034056 78 204 0.0 0.0 0.00 0.00 0.00 88 1015.1
20200803033742 78 201 0.0 0.0 0.00 0.00 0.00 88 1015.1
20200803033547 78 201 0.0 0.0 0.00 0.00 0.00 88 1015.1
20200803033239 78 171 0.0 0.0 0.00 0.00 0.00 88 1015.0
20200803033047 78 179 0.0 0.0 0.00 0.00 0.00 87 1015.1
20200803033009 78 171 0.0 0.0 0.00 0.00 0.00 87 1015.1
20200803032547 78 224 0.0 0.0 0.00 0.00 0.00 87 1015.0
20200803032509 78 224 0.0 0.0 0.00 0.00 0.00 87 1014.9
20200803032047 78 224 0.0 0.0 0.00 0.00 0.00 87 1014.9
20200803032005 78 183 0.0 0.0 0.00 0.00 0.00 86 1015.0
20200803031544 78 205 0.0 0.0 0.00 0.00 0.00 86 1015.0
20200803031506 78 202 0.0 0.0 0.00 0.00 0.00 86 1014.9
20200803031045 79 204 0.0 0.0 0.00 0.00 0.00 86 1015.0
20200803030733 79 194 0.0 0.0 0.00 0.00 0.00 85 1014.9
20200803030539 79 175 0.0 0.0 0.00 0.00 0.00 85 1014.9
20200803030505 79 207 0.0 0.0 0.00 0.00 0.00 85 1014.8
20200803030041 79 175 0.0 0.0 0.00 0.00 0.00 85 1014.8
20200803025731 79 195 0.0 0.0 0.00 0.00 0.00 85 1014.8
20200803025534 79 188 0.0 0.0 0.00 0.00 0.00 84 1014.7
20200803025233 79 212 0.0 0.0 0.00 0.00 0.00 84 1014.7
20200803025033 79 193 0.0 0.0 0.00 0.00 0.00 84 1014.7
20200803024731 79 199 0.0 0.0 0.00 0.00 0.00 84 1014.8
20200803024534 79 194 0.0 0.0 0.00 0.00 0.00 84 1014.8
20200803024223 79 163 0.0 0.0 0.00 0.00 0.00 83 1014.7
20200803024030 79 167 0.0 0.0 0.00 0.00 0.00 83 1014.7
20200803023952 79 215 0.0 0.0 0.00 0.00 0.00 83 1014.7
20200803023529 79 128 0.0 0.0 0.00 0.00 0.00 82 1014.7
20200803023220 79 165 0.0 0.0 0.00 0.00 0.00 82 1014.7
20200803023029 79 166 0.0 0.0 0.00 0.00 0.00 82 1014.6
20200803022721 80 153 0.0 0.0 0.00 0.00 0.00 82 1014.6
20200803022529 80 217 0.0 0.0 0.00 0.00 0.00 82 1014.6
20200803022216 80 208 0.0 0.0 0.00 0.00 0.00 81 1014.6
20200803022027 80 183 0.0 4.0 0.00 0.00 0.00 81 1014.5
20200803021945 80 182 0.0 4.0 0.00 0.00 0.00 81 1014.5
20200803021527 80 206 0.0 4.0 0.00 0.00 0.00 80 1014.4
20200803021216 80 175 0.0 4.0 0.00 0.00 0.00 80 1014.4
20200803021023 80 185 0.0 4.0 0.00 0.00 0.00 81 1014.4
20200803020715 81 213 0.0 4.0 0.00 0.00 0.00 80 1014.4
20200803020523 81 226 0.0 4.0 0.00 0.00 0.00 79 1014.4
20200803020213 81 188 0.0 4.0 0.00 0.00 0.00 79 1014.3
20200803020038 81 185 0.0 3.0 0.00 0.00 0.00 80 1014.3
20200803015713 81 200 0.0 3.0 0.00 0.00 0.00 79 1014.2
20200803015522 81 200 0.0 2.0 0.00 0.00 0.00 78 1014.2
20200803015206 81 171 0.0 1.0 0.00 0.00 0.00 79 1014.2
20200803015021 81 191 0.0 1.0 0.00 0.00 0.00 79 1014.1
20200803014706 82 174 0.0 1.0 0.00 0.00 0.00 77 1014.1
20200803014523 82 195 0.0 1.0 0.00 0.00 0.00 77 1014.1
20200803014434 82 195 0.0 1.0 0.00 0.00 0.00 78 1014.1
20200803014019 82 157 0.0 1.0 0.00 0.00 0.00 77 1014.0
20200803013702 82 217 0.0 1.0 0.00 0.00 0.00 77 1014.0
20200803013516 82 188 0.0 1.0 0.00 0.00 0.00 77 1014.0
20200803013202 82 178 0.0 2.0 0.00 0.00 0.00 77 1014.0
20200803013017 82 196 0.0 2.0 0.00 0.00 0.00 77 1014.0
20200803012700 82 233 0.0 2.0 0.00 0.00 0.00 77 1013.9
20200803012517 82 198 0.0 2.0 0.00 0.00 0.00 76 1013.9
20200803012428 82 150 0.0 0.0 0.00 0.00 0.00 76 1013.9
20200803012015 82 206 0.0 0.0 0.00 0.00 0.00 77 1013.8
20200803011659 83 181 0.0 0.0 0.00 0.00 0.00 77 1013.8
20200803011515 83 159 0.0 0.0 0.00 0.00 0.00 77 1013.7
20200803011158 83 184 0.0 0.0 0.00 0.00 0.00 77 1013.7
20200803011011 83 186 0.0 0.0 0.00 0.00 0.00 76 1013.6
20200803010656 83 171 0.0 0.0 0.00 0.00 0.00 77 1013.6
20200803010510 83 205 0.0 0.0 0.00 0.00 0.00 76 1013.6
20200803010155 83 164 0.0 0.0 0.00 0.00 0.00 78 1013.6
20200803010010 83 190 0.0 0.0 0.00 0.00 0.00 76 1013.6
20200803005651 83 201 0.0 3.0 0.00 0.00 0.00 76 1013.5
20200803005508 83 191 1.0 5.0 0.00 0.00 0.00 76 1013.5
20200803005152 83 157 1.0 6.0 0.00 0.00 0.00 77 1013.4
20200803005008 83 178 1.0 6.0 0.00 0.00 0.00 77 1013.4
20200803004652 83 194 1.0 6.0 0.00 0.00 0.00 79 1013.4
20200803004510 83 155 1.0 6.0 0.00 0.00 0.00 77 1013.3
20200803004151 83 161 0.0 1.0 0.00 0.00 0.00 78 1013.2
20200803004009 83 169 0.0 0.0 0.00 0.00 0.00 79 1013.3
20200803003649 83 178 0.0 0.0 0.00 0.00 0.00 81 1013.3
20200803003501 83 219 0.0 0.0 0.00 0.00 0.00 81 1013.4
20200803003154 83 196 0.0 0.0 0.00 0.00 0.00 81 1013.3
20200803002959 83 186 0.0 0.0 0.00 0.00 0.00 81 1013.3
20200803002643 83 190 0.0 0.0 0.00 0.00 0.00 82 1013.4
20200803002457 83 190 0.0 0.0 0.00 0.00 0.00 82 1013.4
20200803002142 83 196 0.0 0.0 0.00 0.00 0.00 81 1013.4
20200803001957 83 196 0.0 0.0 0.00 0.00 0.00 81 1013.3
20200803001639 84 195 0.0 0.0 0.00 0.00 0.00 81 1013.2
20200803001451 84 191 0.0 0.0 0.00 0.00 0.00 81 1013.2
20200803001407 84 191 0.0 0.0 0.00 0.00 0.00 82 1013.2
20200803000952 84 189 0.0 0.0 0.00 0.00 0.00 82 1013.2
20200803000639 84 180 0.0 0.0 0.00 0.00 0.00 81 1013.2
20200803000450 84 198 0.0 0.0 0.00 0.00 0.00 82 1013.3
20200803000405 84 171 0.0 0.0 0.00 0.00 0.00 82 1013.2
20200802235950 85 171 0.0 0.0 0.00 0.00 0.00 80 1013.2
20200802235634 85 186 0.0 0.0 0.00 0.00 0.00 81 1013.2
20200802235450 85 182 0.0 0.0 0.00 0.00 0.00 81 1013.2
20200802235131 85 182 0.0 0.0 0.00 0.00 0.00 81 1013.3
20200802234955 85 186 0.0 0.0 0.00 0.00 0.00 81 1013.3
20200802234903 85 197 0.0 0.0 0.00 0.00 0.00 80 1013.2